createdAt,value
2018-08-27T00:00:44.095Z,100137.22
2018-08-27T00:03:13.007Z,100133.97
2018-08-27T00:05:41.961Z,100131.33
2018-08-27T00:08:11.288Z,100134.82
2018-08-27T00:10:40.227Z,100137.24
2018-08-27T00:13:09.134Z,100136.47
2018-08-27T00:15:38.065Z,100134.58
2018-08-27T00:18:06.975Z,100130.31
2018-08-27T00:20:35.899Z,100135.39
2018-08-27T00:23:04.946Z,100131.09
2018-08-27T00:25:33.863Z,100127.65
2018-08-27T00:28:02.817Z,100126.27
2018-08-27T00:30:31.821Z,100127.09
2018-08-27T00:33:00.770Z,100118.50
2018-08-27T00:35:29.708Z,100125.19
2018-08-27T00:37:58.636Z,100121.09
2018-08-27T00:40:27.557Z,100125.64
2018-08-27T00:42:56.464Z,100124.55
2018-08-27T00:45:25.516Z,100126.64
2018-08-27T00:47:54.524Z,100122.58
2018-08-27T00:50:23.561Z,100118.28
2018-08-27T00:52:52.459Z,100120.97
2018-08-27T00:55:21.386Z,100121.98
2018-08-27T00:57:50.305Z,100119.28
2018-08-27T01:00:19.311Z,100116.91
2018-08-27T01:02:48.313Z,100119.63
2018-08-27T01:05:17.348Z,100112.38
2018-08-27T01:07:46.284Z,100118.85
2018-08-27T01:10:15.216Z,100114.87
2018-08-27T01:12:44.199Z,100119.23
2018-08-27T01:15:13.228Z,100114.41
2018-08-27T01:17:42.202Z,100116.84
2018-08-27T01:20:11.516Z,100116.10
2018-08-27T01:22:40.475Z,100110.23
2018-08-27T01:25:09.326Z,100109.71
2018-08-27T01:27:38.268Z,100108.39
2018-08-27T01:30:07.193Z,100110.02
2018-08-27T01:32:36.215Z,100114.56
2018-08-27T01:35:05.138Z,100111.36
2018-08-27T01:37:34.049Z,100107.59
2018-08-27T01:40:03.032Z,100109.49
2018-08-27T01:42:34.654Z,100107.63
2018-08-27T01:45:09.629Z,100110.87
2018-08-27T01:47:41.629Z,100095.91
2018-08-27T01:50:17.693Z,100101.24
2018-08-27T01:52:49.833Z,100100.47
2018-08-27T01:55:25.912Z,100098.58
2018-08-27T01:57:58.739Z,100107.11
2018-08-27T02:00:29.206Z,100101.55
2018-08-27T02:02:59.983Z,100099.36
2018-08-27T02:05:35.703Z,100096.20
2018-08-27T02:08:08.528Z,100088.66
2018-08-27T02:10:37.682Z,100085.97
2018-08-27T02:13:08.504Z,100087.05
2018-08-27T02:15:47.727Z,100080.34
2018-08-27T02:18:31.991Z,100086.80
2018-08-27T02:21:04.198Z,100086.80
2018-08-27T02:23:40.560Z,100084.93
2018-08-27T02:26:17.987Z,100084.12
2018-08-27T02:28:54.449Z,100079.82
2018-08-27T02:31:29.248Z,100075.01
2018-08-27T02:34:02.354Z,100074.74
2018-08-27T02:36:39.823Z,100066.20
2018-08-27T02:39:14.640Z,100073.44
2018-08-27T02:41:46.532Z,100073.44
2018-08-27T02:44:25.936Z,100071.55
2018-08-27T02:47:01.829Z,100071.78
2018-08-27T02:49:36.438Z,100070.23
2018-08-27T02:52:14.969Z,100072.38
2018-08-27T02:54:47.048Z,100073.44
2018-08-27T02:57:21.409Z,100065.94
2018-08-27T02:59:54.818Z,100066.18
2018-08-27T03:02:28.351Z,100066.18
2018-08-27T03:05:02.524Z,100066.92
2018-08-27T03:07:37.103Z,100068.53
2018-08-27T03:10:10.792Z,100063.14
2018-08-27T03:12:41.626Z,100065.53
2018-08-27T03:15:13.400Z,100062.56
2018-08-27T03:17:47.334Z,100063.09
2018-08-27T03:20:17.568Z,100062.56
2018-08-27T03:22:53.321Z,100061.23
2018-08-27T03:25:28.318Z,100058.56
2018-08-27T03:27:57.268Z,100055.90
2018-08-27T03:30:26.244Z,100058.61
2018-08-27T03:32:55.183Z,100056.97
2018-08-27T03:35:24.149Z,100052.16
2018-08-27T03:37:53.068Z,100057.25
2018-08-27T03:40:22.024Z,100051.35
2018-08-27T03:42:50.970Z,100054.02
2018-08-27T03:45:19.913Z,100048.42
2018-08-27T03:47:48.955Z,100045.20
2018-08-27T03:50:18.113Z,100044.97
2018-08-27T03:52:47.012Z,100042.83
2018-08-27T03:55:15.923Z,100041.78
2018-08-27T03:57:44.865Z,100042.33
2018-08-27T04:00:13.976Z,100041.53
2018-08-27T04:02:42.902Z,100041.52
2018-08-27T04:05:11.835Z,100051.72
2018-08-27T04:07:40.723Z,100043.98
2018-08-27T04:10:09.633Z,100040.21
2018-08-27T04:12:38.576Z,100045.56
2018-08-27T04:15:07.585Z,100043.12
2018-08-27T04:17:36.517Z,100049.83
2018-08-27T04:20:05.806Z,100052.47
2018-08-27T04:22:34.720Z,100054.59
2018-08-27T04:25:03.634Z,100056.46
2018-08-27T04:27:32.655Z,100051.66
2018-08-27T04:30:01.604Z,100057.01
2018-08-27T04:32:30.553Z,100055.67
2018-08-27T04:34:59.554Z,100058.34
2018-08-27T04:37:28.466Z,100056.98
2018-08-27T04:39:57.414Z,100054.29
2018-08-27T04:42:26.337Z,100054.54
2018-08-27T04:44:55.260Z,100060.17
2018-08-27T04:47:24.183Z,100055.34
2018-08-27T04:49:53.118Z,100053.98
2018-08-27T04:52:22.043Z,100050.74
2018-08-27T04:54:52.040Z,100051.52
2018-08-27T04:57:20.973Z,100057.06
2018-08-27T04:59:53.420Z,100052.17
2018-08-27T05:02:22.344Z,100043.56
2018-08-27T05:04:51.275Z,100044.21
2018-08-27T05:07:20.250Z,100049.52
2018-08-27T05:09:49.258Z,100047.61
2018-08-27T05:12:18.272Z,100043.75
2018-08-27T05:14:47.193Z,100043.38
2018-08-27T05:17:16.289Z,100039.55
2018-08-27T05:19:45.194Z,100046.98
2018-08-27T05:22:14.114Z,100045.45
2018-08-27T05:24:43.135Z,100044.80
2018-08-27T05:27:12.045Z,100040.63
2018-08-27T05:29:40.968Z,100043.17
2018-08-27T05:32:09.893Z,100043.58
2018-08-27T05:34:38.835Z,100045.07
2018-08-27T05:37:07.757Z,100045.94
2018-08-27T05:39:36.681Z,100048.94
2018-08-27T05:42:05.599Z,100045.11
2018-08-27T05:44:34.546Z,100039.75
2018-08-27T05:47:03.431Z,100030.53
2018-08-27T05:49:32.341Z,100034.66
2018-08-27T05:52:01.509Z,100026.78
2018-08-27T05:54:30.385Z,100031.02
2018-08-27T05:56:59.311Z,100028.50
2018-08-27T05:59:28.291Z,100027.79
2018-08-27T06:01:57.259Z,100025.28
2018-08-27T06:04:26.192Z,100020.85
2018-08-27T06:06:55.222Z,100020.48
2018-08-27T06:09:24.140Z,100012.34
2018-08-27T06:11:53.127Z,100010.43
2018-08-27T06:14:22.068Z,100004.59
2018-08-27T06:16:50.987Z,99995.13
2018-08-27T06:19:19.920Z,99990.67
2018-08-27T06:21:48.887Z,99982.09
2018-08-27T06:24:17.868Z,99988.16
2018-08-27T06:26:46.831Z,99986.98
2018-08-27T06:29:15.964Z,99983.00
2018-08-27T06:31:44.866Z,99978.87
2018-08-27T06:34:13.782Z,99972.16
2018-08-27T06:36:42.690Z,99975.97
2018-08-27T06:39:11.838Z,99973.75
2018-08-27T06:41:40.836Z,99971.03
2018-08-27T06:44:09.746Z,99968.30
2018-08-27T06:46:38.668Z,99960.88
2018-08-27T06:49:07.601Z,99955.09
2018-08-27T06:51:36.595Z,99950.74
2018-08-27T06:54:05.496Z,99952.63
2018-08-27T06:56:34.481Z,99958.51
2018-08-27T06:59:03.396Z,99954.91
2018-08-27T07:01:32.359Z,99956.09
2018-08-27T07:04:01.459Z,99959.55
2018-08-27T07:06:30.549Z,99962.30
2018-08-27T07:08:59.471Z,99956.45
2018-08-27T07:11:28.400Z,99952.80
2018-08-27T07:13:57.337Z,99948.59
2018-08-27T07:16:26.232Z,99945.77
2018-08-27T07:18:55.140Z,99946.59
2018-08-27T07:21:24.114Z,99944.15
2018-08-27T07:23:53.020Z,99932.55
2018-08-27T07:26:21.981Z,99935.11
2018-08-27T07:28:50.890Z,99936.09
2018-08-27T07:31:19.819Z,99935.02
2018-08-27T07:33:48.778Z,99937.70
2018-08-27T07:36:17.994Z,99937.81
2018-08-27T07:38:46.794Z,99933.69
2018-08-27T07:41:15.733Z,99930.08
2018-08-27T07:43:44.678Z,99936.27
2018-08-27T07:46:13.710Z,99926.59
2018-08-27T07:48:42.613Z,99916.92
2018-08-27T07:51:11.758Z,99917.21
2018-08-27T07:53:40.843Z,99912.73
2018-08-27T07:56:09.754Z,99909.02
2018-08-27T07:58:38.712Z,99916.03
2018-08-27T08:01:07.557Z,99915.43
2018-08-27T08:03:36.477Z,99905.58
2018-08-27T08:06:05.417Z,99902.14
2018-08-27T08:08:34.315Z,99901.59
2018-08-27T08:11:03.303Z,99897.75
2018-08-27T08:13:32.207Z,99899.97
2018-08-27T08:16:01.114Z,99892.14
2018-08-27T08:18:30.056Z,99889.05
2018-08-27T08:20:59.025Z,99893.84
2018-08-27T08:23:27.939Z,99893.72
2018-08-27T08:25:56.891Z,99893.69
2018-08-27T08:28:25.835Z,99891.46
2018-08-27T08:30:54.873Z,99887.19
2018-08-27T08:33:23.795Z,99893.48
2018-08-27T08:35:52.707Z,99891.31
2018-08-27T08:38:21.589Z,99901.39
2018-08-27T08:40:50.512Z,99884.52
2018-08-27T08:43:19.435Z,99904.05
2018-08-27T08:45:48.338Z,99889.50
2018-08-27T08:48:17.309Z,99889.33
2018-08-27T08:50:46.222Z,99885.08
2018-08-27T08:53:15.144Z,99871.83
2018-08-27T08:55:44.081Z,99890.81
2018-08-27T08:58:12.972Z,99889.01
2018-08-27T09:00:41.917Z,99884.20
2018-08-27T09:03:10.844Z,99887.23
2018-08-27T09:05:39.760Z,99879.87
2018-08-27T09:08:08.706Z,99878.22
2018-08-27T09:10:37.933Z,99880.39
2018-08-27T09:13:06.842Z,99869.58
2018-08-27T09:15:35.793Z,99864.70
2018-08-27T09:18:04.748Z,99863.53
2018-08-27T09:20:33.733Z,99867.86
2018-08-27T09:23:02.660Z,99872.55
2018-08-27T09:25:31.633Z,99865.45
2018-08-27T09:28:00.542Z,99868.83
2018-08-27T09:30:29.471Z,99860.78
2018-08-27T09:32:58.449Z,99865.65
2018-08-27T09:35:27.371Z,99857.05
2018-08-27T09:37:56.346Z,99846.64
2018-08-27T09:40:25.262Z,99848.22
2018-08-27T09:42:54.258Z,99846.91
2018-08-27T09:45:23.399Z,99845.62
2018-08-27T09:47:52.249Z,99837.70
2018-08-27T09:50:21.153Z,99846.91
2018-08-27T09:52:50.174Z,99836.79
2018-08-27T09:55:19.032Z,99833.96
2018-08-27T09:57:47.985Z,99822.41
2018-08-27T10:00:25.009Z,99826.42
2018-08-27T10:02:53.937Z,99838.77
2018-08-27T10:05:22.883Z,99833.72
2018-08-27T10:07:51.813Z,99826.89
2018-08-27T10:10:20.774Z,99821.36
2018-08-27T10:12:49.680Z,99818.59
2018-08-27T10:15:18.602Z,99821.48
2018-08-27T10:17:47.725Z,99828.20
2018-08-27T10:20:17.632Z,99821.59
2018-08-27T10:22:46.576Z,99826.41
2018-08-27T10:25:15.442Z,99822.93
2018-08-27T10:27:44.336Z,99812.53
2018-08-27T10:30:13.514Z,99814.92
2018-08-27T10:32:42.457Z,99823.80
2018-08-27T10:35:11.368Z,99813.38
2018-08-27T10:37:40.403Z,99811.52
2018-08-27T10:40:09.328Z,99806.11
2018-08-27T10:42:38.315Z,99808.80
2018-08-27T10:45:07.170Z,99809.30
2018-08-27T10:47:36.099Z,99796.68
2018-08-27T10:50:05.038Z,99801.80
2018-08-27T10:52:33.938Z,99813.98
2018-08-27T10:55:02.840Z,99820.63
2018-08-27T10:57:31.769Z,99825.63
2018-08-27T11:00:00.741Z,99829.06
2018-08-27T11:02:29.647Z,99831.42
2018-08-27T11:04:58.576Z,99820.81
2018-08-27T11:07:27.568Z,99832.55
2018-08-27T11:09:56.878Z,99828.92
2018-08-27T11:12:25.795Z,99817.65
2018-08-27T11:14:54.873Z,99817.17
2018-08-27T11:17:23.834Z,99820.73
2018-08-27T11:19:52.879Z,99821.52
2018-08-27T11:22:21.692Z,99814.66
2018-08-27T11:24:50.701Z,99809.75
2018-08-27T11:27:19.648Z,99800.26
2018-08-27T11:29:48.584Z,99814.21
2018-08-27T11:32:17.532Z,99811.77
2018-08-27T11:34:46.440Z,99814.66
2018-08-27T11:37:15.377Z,99806.97
2018-08-27T11:39:44.298Z,99816.92
2018-08-27T11:42:13.207Z,99822.70
2018-08-27T11:44:42.200Z,99814.00
2018-08-27T11:47:11.164Z,99789.81
2018-08-27T11:49:40.107Z,99799.27
2018-08-27T11:52:09.021Z,99805.53
2018-08-27T11:54:37.932Z,99810.66
2018-08-27T11:57:06.975Z,99807.94
2018-08-27T11:59:35.928Z,99804.00
2018-08-27T12:02:05.144Z,99806.62
2018-08-27T12:04:33.993Z,99819.13
2018-08-27T12:07:02.888Z,99801.13
2018-08-27T12:09:31.809Z,99792.58
2018-08-27T12:12:00.816Z,99782.07
2018-08-27T12:14:29.722Z,99780.07
2018-08-27T12:16:58.660Z,99773.66
2018-08-27T12:19:27.564Z,99775.53
2018-08-27T12:21:56.464Z,99768.92
2018-08-27T12:24:25.377Z,99764.59
2018-08-27T12:26:54.278Z,99774.99
2018-08-27T12:29:23.193Z,99776.47
2018-08-27T12:31:52.090Z,99786.89
2018-08-27T12:34:21.282Z,99783.09
2018-08-27T12:36:50.203Z,99774.72
2018-08-27T12:39:19.211Z,99772.73
2018-08-27T12:41:48.123Z,99780.17
2018-08-27T12:44:17.061Z,99769.23
2018-08-27T12:46:45.975Z,99766.98
2018-08-27T12:49:14.900Z,99762.80
2018-08-27T12:51:43.817Z,99760.14
2018-08-27T12:54:12.707Z,99758.98
2018-08-27T12:56:41.629Z,99757.05
2018-08-27T12:59:10.616Z,99754.21
2018-08-27T13:01:39.530Z,99752.86
2018-08-27T13:04:08.444Z,99750.42
2018-08-27T13:06:37.349Z,99753.15
2018-08-27T13:09:08.204Z,99749.44
2018-08-27T13:11:37.237Z,99746.91
2018-08-27T13:14:06.380Z,99744.16
2018-08-27T13:16:35.370Z,99751.61
2018-08-27T13:19:04.541Z,99743.78
2018-08-27T13:21:33.379Z,99747.03
2018-08-27T13:24:02.276Z,99751.84
2018-08-27T13:26:31.176Z,99740.89
2018-08-27T13:29:00.094Z,99737.30
2018-08-27T13:31:29.277Z,99736.19
2018-08-27T13:33:58.184Z,99734.02
2018-08-27T13:36:27.144Z,99728.14
2018-08-27T13:38:56.163Z,99727.73
2018-08-27T13:41:25.154Z,99732.64
2018-08-27T13:43:54.048Z,99737.91
2018-08-27T13:46:23.254Z,99735.27
2018-08-27T13:48:52.237Z,99724.14
2018-08-27T13:51:26.120Z,99728.26
2018-08-27T13:53:55.044Z,99723.34
2018-08-27T13:56:24.078Z,99723.05
2018-08-27T13:58:52.996Z,99729.95
2018-08-27T14:01:21.923Z,99724.50
2018-08-27T14:03:50.915Z,99718.39
2018-08-27T14:06:19.850Z,99728.39
2018-08-27T14:08:48.768Z,99712.77
2018-08-27T14:11:17.715Z,99721.41
2018-08-27T14:13:46.614Z,99715.33
2018-08-27T14:16:15.536Z,99720.47
2018-08-27T14:18:44.529Z,99727.32
2018-08-27T14:21:13.547Z,99731.05
2018-08-27T14:23:42.748Z,99728.28
2018-08-27T14:26:11.887Z,99730.00
2018-08-27T14:28:41.980Z,99723.19
2018-08-27T14:31:10.888Z,99726.34
2018-08-27T14:33:39.802Z,99731.66
2018-08-27T14:36:08.718Z,99719.69
2018-08-27T14:38:37.653Z,99728.91
2018-08-27T14:41:06.646Z,99716.38
2018-08-27T14:43:35.508Z,99706.73
2018-08-27T14:46:04.505Z,99709.48
2018-08-27T14:48:33.432Z,99709.48
2018-08-27T14:51:02.420Z,99704.98
2018-08-27T14:53:31.336Z,99711.46
2018-08-27T14:56:00.290Z,99709.11
2018-08-27T14:58:29.181Z,99710.86
2018-08-27T15:01:03.409Z,99703.23
2018-08-27T15:03:32.476Z,99708.09
2018-08-27T15:06:01.408Z,99703.19
2018-08-27T15:08:30.334Z,99709.06
2018-08-27T15:10:59.717Z,99718.05
2018-08-27T15:13:29.461Z,99717.23
2018-08-27T15:15:58.475Z,99715.66
2018-08-27T15:18:27.391Z,99713.27
2018-08-27T15:20:56.313Z,99722.08
2018-08-27T15:23:25.313Z,99725.22
2018-08-27T15:25:54.171Z,99727.58
2018-08-27T15:28:23.098Z,99722.77
2018-08-27T15:30:52.102Z,99729.17
2018-08-27T15:33:21.339Z,99739.29
2018-08-27T15:35:50.425Z,99741.25
2018-08-27T15:38:19.426Z,99735.77
2018-08-27T15:40:48.353Z,99747.24
2018-08-27T15:43:17.272Z,99744.47
2018-08-27T15:45:51.742Z,99747.92
2018-08-27T15:48:20.744Z,99743.47
2018-08-27T15:50:49.823Z,99743.22
2018-08-27T15:53:18.629Z,99746.80
2018-08-27T15:55:47.560Z,99750.80
2018-08-27T15:58:16.506Z,99753.81
2018-08-27T16:00:45.435Z,99754.19
2018-08-27T16:03:14.494Z,99751.88
2018-08-27T16:05:43.540Z,99753.15
2018-08-27T16:08:12.496Z,99751.43
2018-08-27T16:10:41.531Z,99746.13
2018-08-27T16:13:10.612Z,99751.23
2018-08-27T16:15:39.615Z,99752.39
2018-08-27T16:18:08.618Z,99742.20
2018-08-27T16:20:37.734Z,99740.43
2018-08-27T16:23:06.692Z,99744.66
2018-08-27T16:25:35.686Z,99742.50
2018-08-27T16:28:04.660Z,99747.73
2018-08-27T16:30:33.720Z,99749.48
2018-08-27T16:33:02.659Z,99744.34
2018-08-27T16:35:31.576Z,99745.93
2018-08-27T16:38:00.628Z,99757.65
2018-08-27T16:40:29.620Z,99753.28
2018-08-27T16:42:58.556Z,99759.58
2018-08-27T16:45:27.542Z,99753.50
2018-08-27T16:47:56.619Z,99750.51
2018-08-27T16:50:25.581Z,99752.69
2018-08-27T16:52:54.562Z,99754.48
2018-08-27T16:55:23.452Z,99756.47
2018-08-27T16:57:52.429Z,99759.54
2018-08-27T17:00:21.352Z,99758.34
2018-08-27T17:02:50.435Z,99758.71
2018-08-27T17:05:19.369Z,99753.95
2018-08-27T17:07:48.356Z,99762.03
2018-08-27T17:10:17.361Z,99757.93
2018-08-27T17:12:46.293Z,99762.94
2018-08-27T17:15:15.335Z,99764.91
2018-08-27T17:17:44.284Z,99765.32
2018-08-27T17:20:13.214Z,99764.67
2018-08-27T17:22:42.152Z,99768.70
2018-08-27T17:25:11.088Z,99764.22
2018-08-27T17:27:40.128Z,99766.70
2018-08-27T17:30:09.075Z,99768.41
2018-08-27T17:32:37.999Z,99776.05
2018-08-27T17:35:07.388Z,99774.49
2018-08-27T17:37:36.409Z,99782.66
2018-08-27T17:40:05.738Z,99779.77
2018-08-27T17:42:34.716Z,99784.52
2018-08-27T17:45:03.749Z,99789.09
2018-08-27T17:47:32.611Z,99785.64
2018-08-27T17:50:01.681Z,99785.14
2018-08-27T17:52:30.649Z,99787.09
2018-08-27T17:54:59.560Z,99792.80
2018-08-27T17:57:28.522Z,99794.36
2018-08-27T17:59:57.493Z,99803.56
2018-08-27T18:02:26.747Z,99801.83
2018-08-27T18:04:55.809Z,99810.47
2018-08-27T18:07:24.764Z,99812.08
2018-08-27T18:09:53.876Z,99821.95
2018-08-27T18:12:22.903Z,99830.19
2018-08-27T18:14:51.792Z,99831.30
2018-08-27T18:17:20.733Z,99836.42
2018-08-27T18:19:49.676Z,99838.09
2018-08-27T18:22:18.823Z,99850.38
2018-08-27T18:24:47.765Z,99856.67
2018-08-27T18:27:16.714Z,99854.73
2018-08-27T18:29:45.649Z,99860.02
2018-08-27T18:32:14.589Z,99863.97
2018-08-27T18:34:43.540Z,99875.16
2018-08-27T18:37:12.471Z,99876.52
2018-08-27T18:39:41.411Z,99879.59
2018-08-27T18:42:10.390Z,99883.83
2018-08-27T18:44:51.625Z,99881.62
2018-08-27T18:47:21.804Z,99886.63
2018-08-27T18:49:50.737Z,99891.00
2018-08-27T18:52:19.694Z,99892.20
2018-08-27T18:54:48.600Z,99897.75
2018-08-27T18:57:17.573Z,99898.26
2018-08-27T18:59:46.484Z,99913.08
2018-08-27T19:02:15.410Z,99904.73
2018-08-27T19:04:44.353Z,99912.16
2018-08-27T19:07:13.298Z,99916.28
2018-08-27T19:09:42.216Z,99920.47
2018-08-27T19:12:11.249Z,99918.22
2018-08-27T19:14:40.168Z,99921.21
2018-08-27T19:17:09.206Z,99928.47
2018-08-27T19:19:38.356Z,99929.62
2018-08-27T19:22:07.359Z,99936.19
2018-08-27T19:24:36.554Z,99931.50
2018-08-27T19:27:05.457Z,99939.97
2018-08-27T19:29:34.365Z,99944.09
2018-08-27T19:32:03.322Z,99944.61
2018-08-27T19:34:32.253Z,99946.52
2018-08-27T19:37:01.362Z,99942.43
2018-08-27T19:39:30.317Z,99943.66
2018-08-27T19:41:59.170Z,99947.91
2018-08-27T19:44:28.136Z,99948.73
2018-08-27T19:46:57.081Z,99947.74
2018-08-27T19:49:26.080Z,99949.00
2018-08-27T19:51:55.096Z,99953.66
2018-08-27T19:54:24.016Z,99957.09
2018-08-27T19:56:52.955Z,99958.49
2018-08-27T19:59:21.916Z,99968.91
2018-08-27T20:01:50.937Z,99970.77
2018-08-27T20:04:19.898Z,99965.48
2018-08-27T20:06:48.831Z,99961.09
2018-08-27T20:09:17.784Z,99962.13
2018-08-27T20:11:46.747Z,99959.30
2018-08-27T20:14:15.695Z,99965.00
2018-08-27T20:16:44.791Z,99965.50
2018-08-27T20:19:13.979Z,99966.88
2018-08-27T20:21:43.002Z,99967.66
2018-08-27T20:24:11.968Z,99976.98
2018-08-27T20:26:40.966Z,99974.14
2018-08-27T20:29:09.918Z,99978.14
2018-08-27T20:31:38.855Z,99974.61
2018-08-27T20:34:07.861Z,99979.77
2018-08-27T20:36:36.949Z,99981.59
2018-08-27T20:39:07.321Z,99985.92
2018-08-27T20:41:36.386Z,99990.25
2018-08-27T20:44:05.772Z,99987.78
2018-08-27T20:46:34.712Z,99989.14
2018-08-27T20:49:03.654Z,99987.99
2018-08-27T20:51:32.591Z,99996.03
2018-08-27T20:54:01.621Z,99998.91
2018-08-27T20:56:30.581Z,99999.69
2018-08-27T20:58:59.565Z,100009.44
2018-08-27T21:01:28.593Z,100004.93
2018-08-27T21:03:57.740Z,100010.14
2018-08-27T21:06:26.819Z,100007.88
2018-08-27T21:08:55.731Z,100012.05
2018-08-27T21:11:24.682Z,100016.48
2018-08-27T21:13:54.444Z,100018.62
2018-08-27T21:16:23.368Z,100021.69
2018-08-27T21:18:52.326Z,100021.22
2018-08-27T21:21:21.792Z,100032.42
2018-08-27T21:23:50.774Z,100029.33
2018-08-27T21:26:19.699Z,100033.27
2018-08-27T21:28:48.741Z,100029.63
2018-08-27T21:31:17.674Z,100035.50
2018-08-27T21:33:46.600Z,100040.39
2018-08-27T21:36:15.552Z,100048.42
2018-08-27T21:38:44.497Z,100045.25
2018-08-27T21:41:13.577Z,100049.53
2018-08-27T21:43:42.549Z,100045.36
2018-08-27T21:46:11.495Z,100054.07
2018-08-27T21:48:40.481Z,100054.29
2018-08-27T21:51:09.405Z,100061.00
2018-08-27T21:53:38.340Z,100060.34
2018-08-27T21:56:07.346Z,100066.45
2018-08-27T21:58:36.259Z,100073.25
2018-08-27T22:01:05.444Z,100070.42
2018-08-27T22:03:39.802Z,100071.31
2018-08-27T22:06:08.722Z,100074.60
2018-08-27T22:08:38.031Z,100075.50
2018-08-27T22:11:06.979Z,100076.94
2018-08-27T22:13:36.020Z,100078.54
2018-08-27T22:16:04.972Z,100081.85
2018-08-27T22:18:33.996Z,100081.42
2018-08-27T22:21:02.920Z,100085.82
2018-08-27T22:23:31.850Z,100089.67
2018-08-27T22:26:00.779Z,100094.51
2018-08-27T22:28:29.844Z,100089.65
2018-08-27T22:30:58.781Z,100088.48
2018-08-27T22:33:27.754Z,100091.05
2018-08-27T22:35:56.681Z,100100.66
2018-08-27T22:38:25.620Z,100098.16
2018-08-27T22:41:00.173Z,100107.30
2018-08-27T22:43:29.104Z,100105.22
2018-08-27T22:45:58.078Z,100106.89
2018-08-27T22:48:27.004Z,100108.66
2018-08-27T22:50:55.996Z,100113.83
2018-08-27T22:53:25.032Z,100112.06
2018-08-27T22:55:53.969Z,100114.82
2018-08-27T22:58:22.920Z,100111.94
2018-08-27T23:00:51.849Z,100114.25
2018-08-27T23:03:26.233Z,100120.47
2018-08-27T23:05:55.165Z,100119.41
2018-08-27T23:08:24.095Z,100125.33
2018-08-27T23:10:53.029Z,100127.03
2018-08-27T23:13:21.952Z,100132.61
2018-08-27T23:15:50.872Z,100135.50
2018-08-27T23:18:19.885Z,100130.43
2018-08-27T23:20:48.807Z,100137.20
2018-08-27T23:23:17.758Z,100132.16
2018-08-27T23:25:46.700Z,100131.54
2018-08-27T23:28:15.655Z,100130.09
2018-08-27T23:30:44.603Z,100135.20
2018-08-27T23:33:13.547Z,100128.89
2018-08-27T23:35:42.464Z,100138.60
2018-08-27T23:38:11.375Z,100132.45
2018-08-27T23:40:40.309Z,100136.52
2018-08-27T23:43:09.258Z,100140.11
2018-08-27T23:45:38.176Z,100135.95
2018-08-27T23:48:35.236Z,100137.18
2018-08-27T23:51:04.401Z,100138.75
2018-08-27T23:53:33.464Z,100138.87
2018-08-27T23:56:02.449Z,100144.95
2018-08-27T23:58:31.371Z,100145.67
